Station: Morawa Airport  

  Atmospheric Gas Attenuation - ITU Rec 676-11   ----------------- dB/100km -----------------
Date Time Temp RH % AH g/m3 Dew Point Wind Direction Speed kph Gust kph Barometer mB Rainfall Since 9am 24GHz 47GHz 76GHz 122GHz 134GHz 241GHz
08/05 09:20 18.1 45 6.95 6 35 41 1027.5 0 15.9 22.7 32.2 84.0 74.1 253.7
08/05 09:10 17.8 47 7.13 6.3 32 35 1027.6 0 16.3 23.1 33.0 86.1 76.5 262.2
08/05 09:00 17.6 47 7.05 6.2 32 43 1027.7 0 16.1 23.0 32.8 85.5 75.8 259.5
08/05 08:50 17.1 49 7.13 6.3 32 33 1027.8 0 16.3 23.2 33.3 86.9 77.2 264.5
08/05 08:40 16.6 50 7.06 6.1 32 39 1027.8 0 16.2 23.3 33.2 86.7 76.9 263.2
08/05 08:30 16.2 51 7.03 6.1 32 43 1027.8 0 16.1 23.3 33.3 86.8 76.9 263.2
08/05 08:20 15.8 51 6.86 5.9 30 35 1027.9 0 15.8 23.2 32.8 85.6 75.2 257.3
08/05 08:10 15.6 54 7.18 6.3 28 33 1027.8 0 16.5 23.7 34.1 89.0 79.3 271.7
08/05 08:00 15.1 55 7.1 6.1 26 35 1027.8 0 16.3 23.7 34.0 88.7 78.8 269.9
08/05 07:50 14.7 56 7.05 6 20 24 1027.7 0 16.2 23.7 34.0 88.7 78.6 269.0
08/05 07:40 14.4 57 7.05 6 24 26 1027.7 0 16.3 23.8 34.1 89.0 78.9 270.0
08/05 07:30 14.1 58 7.04 6 22 28 1027.6 0 16.2 23.9 34.2 89.2 79.1 270.6
08/05 07:20 13.7 59 6.99 6 20 26 1027.5 0 16.2 23.9 34.2 89.2 78.8 269.7
08/05 07:10 13.3 61 7.05 5.9 20 22 1027.4 0 16.3 24.1 34.5 90.2 80.0 273.7
08/05 07:00 13.1 61 6.96 5.8 19 24 1027.4 0 16.1 24.0 34.3 89.5 79.0 270.4
08/05 06:50 13 61 6.92 5.6 15 19 1027.4 0 16.0 24.0 34.2 89.2 78.6 269.0
08/05 06:40 12.9 62 6.99 5.8 19 24 1027.2 0 16.2 24.1 34.5 90.0 79.6 272.4
08/05 06:30 13 61 6.92 5.7 19 22 1027.1 0 16.0 24.0 34.2 89.2 78.6 268.9
08/05 06:20 13.1 61 6.96 5.7 19 20 1027 0 16.1 24.0 34.3 89.5 79.0 270.3
08/05 06:10 13.3 60 6.93 5.7 17 20 1027 0 16.0 23.9 34.1 88.9 78.4 268.3
08/05 06:00 13.4 60 6.98 5.8 20 28 1026.9 0 16.1 23.9 34.2 89.3 79.0 270.2
08/05 05:50 13.5 59 6.9 5.6 20 22 1026.9 0 16.0 23.8 33.9 88.4 77.9 266.3
08/05 05:40 13.4 59 6.86 5.5 19 22 1026.9 0 15.9 23.8 33.8 88.1 77.4 264.9
08/05 05:30 13.5 59 6.9 5.7 19 24 1026.8 0 16.0 23.8 33.9 88.4 77.8 266.3
08/05 05:20 13.7 59 6.99 5.8 22 26 1026.7 0 16.2 23.9 34.1 89.1 78.8 269.5
08/05 05:10 13.8 58 6.91 5.7 20 24 1026.7 0 16.0 23.7 33.8 88.2 77.7 265.7
08/05 05:00 13.8 58 6.91 5.7 19 26 1026.7 0 16.0 23.7 33.8 88.2 77.7 265.7
08/05 04:50 13.8 58 6.91 5.7 19 22 1026.6 0 16.0 23.7 33.8 88.2 77.7 265.7
08/05 04:40 14 57 6.88 5.6 19 22 1026.6 0 15.9 23.6 33.6 87.6 77.1 263.7
08/05 04:30 14.1 57 6.92 5.7 20 26 1026.6 0 16.0 23.7 33.7 87.9 77.5 265.1
08/05 04:20 14.1 57 6.92 5.7 20 22 1026.6 0 16.0 23.7 33.7 87.9 77.5 265.1
08/05 04:10 14.3 56 6.88 5.6 19 24 1026.4 0 15.9 23.5 33.4 87.3 76.8 262.7
08/05 04:00 14.4 56 6.92 5.7 20 28 1026.4 0 16.0 23.6 33.6 87.6 77.2 264.1
08/05 03:50 14.6 56 7.01 5.9 19 22 1026.3 0 16.2 23.7 33.8 88.3 78.1 267.3
08/05 03:40 14.6 54 6.76 5.6 22 24 1026.3 0 15.6 23.3 32.9 85.8 75.0 256.5
08/05 03:30 14.6 56 7.01 5.9 19 28 1026.3 0 16.2 23.7 33.8 88.3 78.1 267.3
08/05 03:20 14.6 54 6.76 5.6 19 22 1026.3 0 15.6 23.3 32.9 85.8 75.0 256.5
08/05 03:10 14.6 54 6.76 5.6 17 20 1026.4 0 15.6 23.3 32.9 85.8 75.0 256.5
08/05 03:00 14.8 55 6.97 5.9 17 22 1026.4 0 16.1 23.5 33.6 87.6 77.4 264.9
08/05 02:50 14.9 53 6.75 5.6 19 22 1026.4 0 15.6 23.2 32.7 85.3 74.6 255.1
08/05 02:40 15 53 6.8 5.7 19 22 1026.4 0 15.7 23.2 32.9 85.7 75.1 256.9
08/05 02:30 15.2 53 6.88 5.7 22 30 1026.3 0 15.9 23.3 33.1 86.3 75.9 259.7
08/05 02:20 15.4 52 6.83 5.8 22 26 1026.2 0 15.7 23.2 32.8 85.6 75.1 256.9
08/05 02:10 15.4 52 6.83 5.6 24 28 1026.2 0 15.7 23.2 32.8 85.6 75.1 256.9
08/05 02:00 15.5 52 6.87 5.7 24 32 1026.2 0 15.8 23.2 32.9 85.9 75.5 258.3
08/05 01:50 15.6 52 6.92 5.8 24 28 1026.3 0 15.9 23.3 33.1 86.3 76.0 260.1
08/05 01:40 15.5 52 6.87 5.7 19 22 1026.3 0 15.8 23.2 32.9 85.9 75.5 258.3
08/05 01:30 15.6 52 6.92 5.8 20 32 1026.4 0 15.9 23.3 33.1 86.3 76.0 260.2
08/05 01:20 15.7 51 6.82 5.6 24 30 1026.4 0 15.7 23.1 32.6 85.2 74.7 255.6
08/05 01:10 15.7 51 6.82 5.6 22 28 1026.4 0 15.7 23.1 32.6 85.2 74.7 255.6
08/05 01:00 15.7 51 6.82 5.6 19 26 1026.6 0 15.7 23.1 32.7 85.2 74.7 255.6
08/05 00:50 15.8 51 6.86 5.7 22 26 1026.6 0 15.8 23.1 32.8 85.5 75.1 257.0
08/05 00:40 15.8 50 6.73 5.4 20 22 1026.6 0 15.5 22.9 32.3 84.2 73.5 251.5
08/05 00:30 15.9 50 6.77 5.5 17 24 1026.6 0 15.6 23.0 32.4 84.5 73.9 252.9
08/05 00:20 15.9 50 6.77 5.5 19 22 1026.6 0 15.6 23.0 32.4 84.5 73.9 252.9
08/05 00:10 15.9 50 6.77 5.5 19 22 1026.7 0 15.6 23.0 32.4 84.5 73.9 252.9
08/05 00:00 16 50 6.81 5.6 15 20 1026.7 0 15.7 23.0 32.5 84.8 74.3 254.3
07/05 23:50 16.1 49 6.72 5.4 15 19 1026.7 0 15.5 22.9 32.1 83.8 73.2 250.1
07/05 23:40 16.3 47 6.52 5.2 17 20 1026.7 0 15.1 22.5 31.3 81.7 70.6 241.1
07/05 23:30 16.5 48 6.74 5.5 15 22 1026.7 0 15.5 22.8 32.1 83.6 73.0 249.8
07/05 23:20 16.4 47 6.56 5.3 15 17 1026.7 0 15.1 22.5 31.4 82.0 71.0 242.5
07/05 23:10 16.5 47 6.6 5.1 15 17 1026.7 0 15.2 22.6 31.5 82.2 71.4 243.9
07/05 23:00 16.8 46 6.58 5.1 15 20 1026.7 0 15.2 22.5 31.4 81.7 70.8 242.1
07/05 22:50 17.1 46 6.7 5.4 15 19 1026.7 0 15.4 22.6 31.7 82.6 72.0 246.2
07/05 22:40 17.2 44 6.44 5.1 15 17 1026.8 0 14.9 22.2 30.7 80.0 68.9 235.2
07/05 22:30 17.4 45 6.67 5.4 17 20 1026.7 0 15.3 22.5 31.4 82.0 71.4 244.1
07/05 22:20 17.5 45 6.71 5.4 19 20 1026.7 0 15.4 22.5 31.6 82.3 71.8 245.4
07/05 22:10 17.4 45 6.67 5.3 17 20 1026.7 0 15.3 22.5 31.4 82.0 71.4 244.1
07/05 22:00 17.4 44 6.52 5 15 22 1026.6 0 15.0 22.2 30.9 80.6 69.6 237.9
07/05 21:50 17.5 44 6.56 5.1 13 17 1026.4 0 15.1 22.3 31.0 80.8 70.0 239.2
07/05 21:40 17.7 42 6.34 4.9 17 20 1026.3 0 14.6 21.9 30.2 78.5 67.2 229.6
07/05 21:30 17.9 43 6.56 5.2 17 24 1026.2 0 15.1 22.2 30.8 80.4 69.6 238.0
07/05 21:20 18.2 42 6.53 5.1 19 20 1026.1 0 15.0 22.0 30.6 79.8 69.0 235.8
07/05 21:10 18.2 42 6.53 5.1 15 19 1026.1 0 15.0 22.0 30.6 79.8 69.0 235.8
07/05 21:00 18.1 42 6.49 5 17 24 1026 0 14.9 22.0 30.5 79.5 68.6 234.5
07/05 20:50 18.3 41 6.41 4.8 19 22 1025.9 0 14.8 21.8 30.2 78.6 67.5 230.6
07/05 20:40 18.4 41 6.45 4.9 19 20 1025.8 0 14.8 21.9 30.3 78.9 67.9 232.0
07/05 20:30 18.3 42 6.57 5.2 17 24 1025.6 0 15.1 22.1 30.7 80.1 69.4 237.1
07/05 20:20 18.3 41 6.41 5.1 17 20 1025.6 0 14.8 21.8 30.2 78.6 67.5 230.6
07/05 20:10 18.2 43 6.68 5.4 17 20 1025.6 0 15.3 22.2 31.1 81.2 70.7 241.9
07/05 20:00 18.2 43 6.68 5.4 15 20 1025.5 0 15.3 22.2 31.1 81.2 70.7 241.9
07/05 19:50 17.6 46 6.9 5.8 15 17 1025.4 0 15.8 22.7 32.1 83.9 73.8 252.8
07/05 19:40 16 48 6.54 5 11 13 1025.3 0 15.1 22.6 31.5 82.0 71.0 242.6
07/05 19:30 16.1 46 6.31 4.5 9 11 1025.2 0 14.6 22.2 30.6 79.7 68.2 232.7
07/05 19:20 16.2 44 6.07 3.9 7 7 1025.1 0 14.1 21.8 29.7 77.3 65.3 222.4
07/05 19:10 16.9 42 6.04 3.9 11 11 1024.9 0 14.0 21.6 29.3 76.4 64.3 219.3
07/05 19:00 17.9 40 6.11 4.1 13 15 1024.8 0 14.1 21.5 29.2 76.1 64.3 219.4
07/05 18:50 18.1 39 6.03 3.9 11 13 1024.7 0 14.0 21.3 28.9 75.1 63.3 215.6
07/05 18:40 18.8 38 6.12 4.2 11 11 1024.6 0 14.1 21.3 28.9 75.3 63.7 217.4
07/05 18:30 18.9 37 5.99 3.9 13 17 1024.4 0 13.9 21.1 28.4 74.0 62.2 211.9
07/05 18:20 19.5 36 6.04 4 13 15 1024.3 0 13.9 21.0 28.4 73.9 62.3 212.3
07/05 18:10 19.8 35 5.98 3.9 13 15 1024.2 0 13.8 20.8 28.1 73.1 61.4 209.2
07/05 18:00 20.2 34 5.94 3.9 13 19 1024.1 0 13.7 20.7 27.8 72.4 60.6 206.6
07/05 17:50 20.9 33 6.01 4 15 19 1024 0 13.8 20.6 27.8 72.4 60.9 207.5
07/05 17:40 21.3 32 5.96 3.9 15 20 1023.9 0 13.7 20.5 27.5 71.6 60.0 204.6
07/05 17:30 21.6 31 5.88 3.8 19 26 1023.8 0 13.5 20.3 27.2 70.6 58.9 200.8
07/05 17:20 22.1 30 5.86 3.7 17 19 1023.8 0 13.5 20.2 26.9 70.0 58.3 198.8
07/05 17:10 22.5 29 5.79 3.6 26 32 1023.7 0 13.3 20.0 26.6 69.1 57.3 195.2
07/05 17:00 22.8 29 5.89 3.9 22 33 1023.6 0 13.5 20.1 26.8 69.7 58.2 198.3
07/05 16:50 23.1 29 5.99 4.1 26 30 1023.6 0 13.7 20.1 27.0 70.3 59.0 201.3

Last Refresh: 08-May-2026 11:04:08

Bureau of Meteorology